createdAt,value
2018-06-03T00:01:40.473Z,100392.70
2018-06-03T00:04:13.721Z,100391.10
2018-06-03T00:06:46.998Z,100387.51
2018-06-03T00:09:19.696Z,100384.55
2018-06-03T00:11:52.699Z,100387.03
2018-06-03T00:14:25.267Z,100384.64
2018-06-03T00:16:57.825Z,100386.09
2018-06-03T00:19:31.046Z,100383.78
2018-06-03T00:22:28.252Z,100381.12
2018-06-03T00:25:00.705Z,100379.24
2018-06-03T00:27:33.468Z,100379.80
2018-06-03T00:30:06.669Z,100372.47
2018-06-03T00:32:39.153Z,100379.09
2018-06-03T00:35:12.917Z,100380.77
2018-06-03T00:37:45.597Z,100374.62
2018-06-03T00:40:18.061Z,100375.25
2018-06-03T00:42:51.270Z,100371.47
2018-06-03T00:45:28.955Z,100369.00
2018-06-03T00:48:02.641Z,100370.34
2018-06-03T00:50:36.025Z,100371.55
2018-06-03T00:53:09.194Z,100368.55
2018-06-03T00:55:42.399Z,100365.84
2018-06-03T00:58:16.153Z,100365.27
2018-06-03T01:00:49.057Z,100367.72
2018-06-03T01:03:23.239Z,100372.53
2018-06-03T01:05:56.442Z,100369.22
2018-06-03T01:08:29.275Z,100370.03
2018-06-03T01:11:01.978Z,100367.13
2018-06-03T01:13:34.725Z,100364.38
2018-06-03T01:16:07.348Z,100358.43
2018-06-03T01:18:39.880Z,100357.48
2018-06-03T01:21:13.638Z,100359.50
2018-06-03T01:23:46.565Z,100360.43
2018-06-03T01:26:19.280Z,100362.93
2018-06-03T01:28:53.322Z,100367.97
2018-06-03T01:31:26.378Z,100364.30
2018-06-03T01:33:58.934Z,100366.48
2018-06-03T01:36:31.869Z,100364.32
2018-06-03T01:39:06.512Z,100368.59
2018-06-03T01:41:39.084Z,100364.63
2018-06-03T01:44:12.500Z,100364.36
2018-06-03T01:46:45.042Z,100364.40
2018-06-03T01:49:17.809Z,100371.25
2018-06-03T01:51:51.743Z,100364.09
2018-06-03T01:54:24.432Z,100359.37
2018-06-03T01:56:57.589Z,100351.88
2018-06-03T01:59:30.410Z,100359.28
2018-06-03T02:02:02.866Z,100361.86
2018-06-03T02:04:35.321Z,100357.19
2018-06-03T02:07:08.401Z,100363.36
2018-06-03T02:09:41.074Z,100360.83
2018-06-03T02:12:13.472Z,100358.37
2018-06-03T02:14:46.219Z,100360.59
2018-06-03T02:17:18.876Z,100358.23
2018-06-03T02:19:51.639Z,100360.78
2018-06-03T02:22:24.617Z,100360.83
2018-06-03T02:24:57.525Z,100360.92
2018-06-03T02:27:30.165Z,100357.64
2018-06-03T02:30:06.005Z,100352.00
2018-06-03T02:32:38.617Z,100359.25
2018-06-03T02:35:11.210Z,100357.27
2018-06-03T02:37:44.185Z,100349.41
2018-06-03T02:40:16.989Z,100353.56
2018-06-03T02:42:49.799Z,100349.37
2018-06-03T02:45:22.698Z,100353.68
2018-06-03T02:47:56.114Z,100350.51
2018-06-03T02:50:28.751Z,100353.20
2018-06-03T02:53:03.332Z,100347.89
2018-06-03T02:55:35.863Z,100345.97
2018-06-03T02:58:08.421Z,100344.69
2018-06-03T03:00:42.290Z,100345.30
2018-06-03T03:03:14.833Z,100341.61
2018-06-03T03:05:47.386Z,100345.75
2018-06-03T03:08:20.162Z,100343.53
2018-06-03T03:10:52.745Z,100346.02
2018-06-03T03:13:29.177Z,100348.04
2018-06-03T03:16:02.702Z,100340.56
2018-06-03T03:18:35.440Z,100344.02
2018-06-03T03:21:08.297Z,100338.09
2018-06-03T03:23:41.465Z,100340.16
2018-06-03T03:26:14.246Z,100339.05
2018-06-03T03:28:47.318Z,100339.73
2018-06-03T03:31:20.259Z,100340.64
2018-06-03T03:33:52.681Z,100343.33
2018-06-03T03:36:25.981Z,100346.10
2018-06-03T03:39:00.908Z,100343.62
2018-06-03T03:41:33.316Z,100347.36
2018-06-03T03:44:05.989Z,100345.39
2018-06-03T03:46:38.875Z,100343.52
2018-06-03T03:49:11.429Z,100343.11
2018-06-03T03:51:43.757Z,100343.30
2018-06-03T03:54:16.919Z,100340.86
2018-06-03T03:56:49.375Z,100339.73
2018-06-03T03:59:22.046Z,100342.42
2018-06-03T04:01:54.701Z,100339.75
2018-06-03T04:04:27.364Z,100345.93
2018-06-03T04:07:00.446Z,100346.75
2018-06-03T04:09:34.528Z,100342.05
2018-06-03T04:12:07.124Z,100346.17
2018-06-03T04:14:39.701Z,100343.91
2018-06-03T04:17:12.536Z,100351.66
2018-06-03T04:19:45.868Z,100350.76
2018-06-03T04:22:18.407Z,100351.00
2018-06-03T04:25:02.031Z,100349.34
2018-06-03T04:27:34.993Z,100349.95
2018-06-03T04:30:08.534Z,100350.28
2018-06-03T04:32:42.425Z,100352.37
2018-06-03T04:35:15.625Z,100352.14
2018-06-03T04:37:48.487Z,100349.88
2018-06-03T04:40:21.037Z,100350.17
2018-06-03T04:42:53.667Z,100351.08
2018-06-03T04:45:26.340Z,100352.81
2018-06-03T04:47:58.728Z,100353.97
2018-06-03T04:50:31.243Z,100356.16
2018-06-03T04:53:06.153Z,100358.32
2018-06-03T04:55:39.236Z,100362.14
2018-06-03T04:58:12.373Z,100363.47
2018-06-03T05:00:45.133Z,100364.98
2018-06-03T05:03:17.552Z,100364.77
2018-06-03T05:05:50.152Z,100366.37
2018-06-03T05:08:22.898Z,100369.72
2018-06-03T05:10:55.492Z,100364.96
2018-06-03T05:13:28.069Z,100367.85
2018-06-03T05:16:02.093Z,100369.27
2018-06-03T05:18:34.599Z,100365.53
2018-06-03T05:21:07.295Z,100364.63
2018-06-03T05:23:40.469Z,100364.68
2018-06-03T05:26:13.211Z,100367.22
2018-06-03T05:28:45.892Z,100374.52
2018-06-03T05:31:19.631Z,100373.55
2018-06-03T05:33:52.152Z,100379.93
2018-06-03T05:36:24.932Z,100379.75
2018-06-03T05:38:58.096Z,100383.09
2018-06-03T05:41:30.731Z,100383.86
2018-06-03T05:44:03.244Z,100386.28
2018-06-03T05:46:36.204Z,100381.42
2018-06-03T05:49:08.737Z,100381.77
2018-06-03T05:51:41.632Z,100381.17
2018-06-03T05:54:14.360Z,100380.64
2018-06-03T05:56:47.317Z,100383.55
2018-06-03T05:59:20.136Z,100379.77
2018-06-03T06:01:52.749Z,100378.69
2018-06-03T06:04:26.075Z,100381.56
2018-06-03T06:06:58.502Z,100383.48
2018-06-03T06:09:30.829Z,100388.24
2018-06-03T06:12:03.736Z,100393.66
2018-06-03T06:14:36.356Z,100401.65
2018-06-03T06:17:08.962Z,100402.86
2018-06-03T06:19:41.957Z,100413.94
2018-06-03T06:22:14.987Z,100404.27
2018-06-03T06:24:48.176Z,100410.98
2018-06-03T06:27:22.906Z,100408.02
2018-06-03T06:29:55.654Z,100402.52
2018-06-03T06:32:28.810Z,100398.35
2018-06-03T06:35:01.639Z,100402.33
2018-06-03T06:37:34.133Z,100400.64
2018-06-03T06:40:06.591Z,100403.52
2018-06-03T06:42:39.540Z,100402.45
2018-06-03T06:45:15.232Z,100402.70
2018-06-03T06:47:48.478Z,100403.52
2018-06-03T06:50:22.008Z,100406.29
2018-06-03T06:52:55.223Z,100406.92
2018-06-03T06:55:28.017Z,100410.00
2018-06-03T06:58:00.949Z,100409.06
2018-06-03T07:00:33.527Z,100410.69
2018-06-03T07:03:06.089Z,100412.34
2018-06-03T07:05:38.934Z,100416.05
2018-06-03T07:08:13.100Z,100411.91
2018-06-03T07:10:45.716Z,100416.96
2018-06-03T07:13:18.881Z,100420.95
2018-06-03T07:15:51.485Z,100420.50
2018-06-03T07:18:24.402Z,100418.07
2018-06-03T07:20:57.189Z,100413.29
2018-06-03T07:23:30.257Z,100414.89
2018-06-03T07:26:02.814Z,100414.86
2018-06-03T07:28:36.624Z,100412.25
2018-06-03T07:31:09.311Z,100406.17
2018-06-03T07:33:41.778Z,100409.61
2018-06-03T07:36:14.501Z,100409.72
2018-06-03T07:38:47.435Z,100408.10
2018-06-03T07:41:20.526Z,100408.63
2018-06-03T07:43:54.021Z,100409.03
2018-06-03T07:46:27.368Z,100406.64
2018-06-03T07:48:59.933Z,100409.39
2018-06-03T07:51:32.919Z,100410.25
2018-06-03T07:54:05.611Z,100407.97
2018-06-03T07:56:38.234Z,100410.31
2018-06-03T07:59:10.992Z,100413.05
2018-06-03T08:01:43.609Z,100413.86
2018-06-03T08:04:16.179Z,100410.63
2018-06-03T08:06:49.116Z,100411.03
2018-06-03T08:09:23.072Z,100411.50
2018-06-03T08:11:55.947Z,100410.31
2018-06-03T08:14:29.142Z,100408.00
2018-06-03T08:17:01.726Z,100410.27
2018-06-03T08:19:34.298Z,100415.48
2018-06-03T08:22:07.064Z,100408.62
2018-06-03T08:24:39.689Z,100414.94
2018-06-03T08:27:12.340Z,100403.66
2018-06-03T08:29:45.287Z,100400.39
2018-06-03T08:32:18.967Z,100393.00
2018-06-03T08:34:51.853Z,100395.65
2018-06-03T08:37:25.666Z,100393.30
2018-06-03T08:39:58.645Z,100391.30
2018-06-03T08:42:32.791Z,100395.42
2018-06-03T08:45:07.049Z,100394.59
2018-06-03T08:47:39.665Z,100389.63
2018-06-03T08:50:12.220Z,100393.93
2018-06-03T08:52:45.209Z,100394.00
2018-06-03T08:55:17.877Z,100390.66
2018-06-03T08:57:50.729Z,100390.54
2018-06-03T09:00:25.435Z,100398.12
2018-06-03T09:02:58.130Z,100395.30
2018-06-03T09:05:31.434Z,100385.84
2018-06-03T09:08:04.642Z,100381.69
2018-06-03T09:10:37.849Z,100386.28
2018-06-03T09:13:10.501Z,100375.21
2018-06-03T09:15:43.655Z,100373.47
2018-06-03T09:18:17.112Z,100376.09
2018-06-03T09:20:49.741Z,100376.36
2018-06-03T09:23:23.936Z,100376.45
2018-06-03T09:25:56.737Z,100373.17
2018-06-03T09:28:30.062Z,100376.95
2018-06-03T09:31:05.913Z,100377.56
2018-06-03T09:33:38.588Z,100380.33
2018-06-03T09:36:11.092Z,100376.02
2018-06-03T09:38:44.047Z,100370.41
2018-06-03T09:41:16.558Z,100380.20
2018-06-03T09:43:50.963Z,100378.42
2018-06-03T09:46:25.322Z,100376.55
2018-06-03T09:48:58.154Z,100376.98
2018-06-03T09:51:31.903Z,100378.12
2018-06-03T09:54:04.859Z,100374.03
2018-06-03T09:56:37.601Z,100370.90
2018-06-03T09:59:10.160Z,100370.20
2018-06-03T10:01:42.880Z,100365.31
2018-06-03T10:04:15.521Z,100369.85
2018-06-03T10:06:48.001Z,100372.80
2018-06-03T10:09:22.304Z,100379.68
2018-06-03T10:11:55.290Z,100373.95
2018-06-03T10:14:30.963Z,100370.24
2018-06-03T10:17:04.400Z,100372.14
2018-06-03T10:19:36.934Z,100373.84
2018-06-03T10:22:09.438Z,100374.44
2018-06-03T10:24:42.257Z,100374.36
2018-06-03T10:27:14.808Z,100373.52
2018-06-03T10:29:47.673Z,100369.38
2018-06-03T10:32:27.224Z,100369.80
2018-06-03T10:35:00.152Z,100367.41
2018-06-03T10:37:33.473Z,100362.80
2018-06-03T10:40:08.237Z,100364.72
2018-06-03T10:42:41.020Z,100373.38
2018-06-03T10:45:15.153Z,100365.92
2018-06-03T10:47:48.351Z,100362.64
2018-06-03T10:50:22.061Z,100364.94
2018-06-03T10:52:54.888Z,100365.17
2018-06-03T10:55:29.645Z,100363.38
2018-06-03T10:58:02.316Z,100367.81
2018-06-03T11:00:34.903Z,100358.19
2018-06-03T11:03:08.009Z,100356.17
2018-06-03T11:05:40.588Z,100352.18
2018-06-03T11:08:13.000Z,100351.95
2018-06-03T11:10:45.841Z,100344.48
2018-06-03T11:13:18.398Z,100341.06
2018-06-03T11:15:51.469Z,100338.27
2018-06-03T11:18:32.822Z,100338.28
2018-06-03T11:21:05.647Z,100340.34
2018-06-03T11:23:38.065Z,100331.65
2018-06-03T11:26:10.929Z,100330.43
2018-06-03T11:28:43.477Z,100334.30
2018-06-03T11:31:16.110Z,100331.25
2018-06-03T11:33:50.021Z,100328.09
2018-06-03T11:36:23.949Z,100328.61
2018-06-03T11:38:56.890Z,100327.65
2018-06-03T11:41:32.306Z,100327.89
2018-06-03T11:44:05.874Z,100333.41
2018-06-03T11:46:39.559Z,100326.86
2018-06-03T11:49:12.430Z,100325.16
2018-06-03T11:51:45.118Z,100322.97
2018-06-03T11:54:17.810Z,100327.33
2018-06-03T11:57:03.012Z,100329.84
2018-06-03T11:59:42.993Z,100322.57
2018-06-03T12:02:18.674Z,100322.19
2018-06-03T12:04:51.897Z,100324.09
2018-06-03T12:07:27.959Z,100323.81
2018-06-03T12:10:01.625Z,100324.29
2018-06-03T12:12:36.018Z,100314.50
2018-06-03T12:15:09.297Z,100312.98
2018-06-03T12:17:43.364Z,100313.54
2018-06-03T12:20:16.710Z,100314.27
2018-06-03T12:22:49.701Z,100309.13
2018-06-03T12:25:23.619Z,100304.89
2018-06-03T12:27:56.819Z,100302.72
2018-06-03T12:30:31.855Z,100303.12
2018-06-03T12:33:04.513Z,100300.16
2018-06-03T12:35:37.195Z,100300.33
2018-06-03T12:38:11.058Z,100302.22
2018-06-03T12:44:06.367Z,100290.34
2018-06-03T12:46:39.449Z,100287.95
2018-06-03T12:49:12.362Z,100284.02
2018-06-03T12:51:44.925Z,100284.45
2018-06-03T12:54:17.874Z,100278.20
2018-06-03T12:56:50.565Z,100274.52
2018-06-03T12:59:25.680Z,100274.53
2018-06-03T13:01:58.651Z,100275.88
2018-06-03T13:04:32.854Z,100278.56
2018-06-03T13:07:05.544Z,100274.04
2018-06-03T13:09:38.052Z,100272.52
2018-06-03T13:12:11.605Z,100275.80
2018-06-03T13:14:44.187Z,100276.16
2018-06-03T13:17:16.953Z,100266.55
2018-06-03T13:19:49.956Z,100270.12
2018-06-03T13:22:22.353Z,100269.20
2018-06-03T13:24:55.393Z,100266.16
2018-06-03T13:27:28.996Z,100265.84
2018-06-03T13:30:04.498Z,100266.70
2018-06-03T13:32:39.197Z,100262.36
2018-06-03T13:35:11.989Z,100255.96
2018-06-03T13:37:44.437Z,100250.28
2018-06-03T13:40:17.199Z,100250.44
2018-06-03T13:42:50.738Z,100247.33
2018-06-03T13:45:24.708Z,100240.55
2018-06-03T13:47:57.445Z,100234.47
2018-06-03T13:50:31.149Z,100231.75
2018-06-03T13:53:04.051Z,100231.80
2018-06-03T13:55:39.577Z,100221.26
2018-06-03T13:58:12.085Z,100222.23
2018-06-03T14:00:45.435Z,100218.88
2018-06-03T14:03:17.984Z,100218.78
2018-06-03T14:05:50.605Z,100214.28
2018-06-03T14:08:23.722Z,100207.09
2018-06-03T14:10:56.577Z,100206.14
2018-06-03T14:13:30.055Z,100207.06
2018-06-03T14:16:03.074Z,100205.00
2018-06-03T14:18:36.922Z,100197.45
2018-06-03T14:21:10.038Z,100194.70
2018-06-03T14:23:45.171Z,100192.56
2018-06-03T14:26:17.982Z,100190.52
2018-06-03T14:28:50.508Z,100184.03
2018-06-03T14:31:23.451Z,100182.52
2018-06-03T14:33:57.043Z,100180.67
2018-06-03T14:36:31.607Z,100173.77
2018-06-03T14:39:08.314Z,100175.82
2018-06-03T14:41:41.472Z,100169.12
2018-06-03T14:44:14.117Z,100159.54
2018-06-03T14:46:47.388Z,100159.91
2018-06-03T14:49:20.251Z,100155.56
2018-06-03T14:51:52.874Z,100159.28
2018-06-03T14:54:25.834Z,100148.95
2018-06-03T14:56:59.097Z,100151.06
2018-06-03T14:59:34.807Z,100148.42
2018-06-03T15:02:09.477Z,100145.68
2018-06-03T15:04:42.426Z,100137.59
2018-06-03T15:07:16.217Z,100135.58
2018-06-03T15:09:48.973Z,100140.59
2018-06-03T15:12:21.522Z,100128.93
2018-06-03T15:14:54.469Z,100123.21
2018-06-03T15:17:28.229Z,100124.02
2018-06-03T15:20:04.704Z,100122.81
2018-06-03T15:22:39.926Z,100119.32
2018-06-03T15:25:12.509Z,100117.94
2018-06-03T15:27:46.029Z,100114.34
2018-06-03T15:30:18.514Z,100107.91
2018-06-03T15:32:52.282Z,100107.03
2018-06-03T15:35:27.966Z,100106.30
2018-06-03T15:38:02.005Z,100101.44
2018-06-03T15:40:39.060Z,100097.20
2018-06-03T15:43:15.823Z,100092.77
2018-06-03T15:45:48.582Z,100094.02
2018-06-03T15:48:21.245Z,100091.30
2018-06-03T15:50:53.840Z,100088.23
2018-06-03T15:53:26.912Z,100090.25
2018-06-03T15:56:00.130Z,100088.13
2018-06-03T15:58:35.813Z,100086.33
2018-06-03T16:01:09.510Z,100083.52
2018-06-03T16:03:42.758Z,100082.94
2018-06-03T16:06:15.225Z,100083.97
2018-06-03T16:08:51.972Z,100083.27
2018-06-03T16:11:26.072Z,100084.59
2018-06-03T16:14:06.873Z,100090.94
2018-06-03T16:16:41.509Z,100081.32
2018-06-03T16:19:17.885Z,100075.25
2018-06-03T16:21:51.235Z,100071.57
2018-06-03T16:24:24.098Z,100066.79
2018-06-03T16:26:57.009Z,100059.29
2018-06-03T16:29:31.835Z,100061.98
2018-06-03T16:32:06.353Z,100063.55
2018-06-03T16:34:41.747Z,100062.29
2018-06-03T16:37:16.997Z,100061.41
2018-06-03T16:39:51.490Z,100058.80
2018-06-03T16:42:27.012Z,100056.55
2018-06-03T16:45:05.837Z,100054.89
2018-06-03T16:47:44.578Z,100051.69
2018-06-03T16:50:26.014Z,100046.00
2018-06-03T16:53:10.209Z,100043.69
2018-06-03T16:55:55.992Z,100043.96
2018-06-03T16:58:45.503Z,100041.51
2018-06-03T17:01:38.611Z,100042.16
2018-06-03T17:04:31.885Z,100042.34
2018-06-03T17:07:23.799Z,100040.42
2018-06-03T17:10:49.782Z,100044.77
2018-06-03T17:13:27.861Z,100038.97
2018-06-03T17:16:14.056Z,100040.69
2018-06-03T17:18:58.902Z,100039.91
2018-06-03T17:21:43.685Z,100032.11
2018-06-03T17:24:41.377Z,100030.23
2018-06-03T17:27:34.312Z,100031.94
2018-06-03T17:30:11.003Z,100034.54
2018-06-03T17:32:50.906Z,100025.45
2018-06-03T17:36:10.210Z,100021.98
2018-06-03T17:38:56.343Z,100026.06
2018-06-03T17:41:43.239Z,100021.42
2018-06-03T17:44:30.400Z,100023.42
2018-06-03T17:47:15.491Z,100021.98
2018-06-03T17:50:00.535Z,100029.10
2018-06-03T17:52:55.849Z,100023.80
2018-06-03T17:55:40.279Z,100027.49
2018-06-03T17:58:46.002Z,100026.52
2018-06-03T18:01:53.317Z,100020.23
2018-06-03T18:05:14.884Z,100019.28
2018-06-03T18:08:06.696Z,100017.96
2018-06-03T18:10:55.550Z,100014.76
2018-06-03T18:13:43.242Z,100013.07
2018-06-03T18:16:34.822Z,100013.99
2018-06-03T18:19:11.818Z,100011.89
2018-06-03T18:21:45.303Z,100013.41
2018-06-03T18:24:18.935Z,100011.28
2018-06-03T18:26:52.857Z,100018.56
2018-06-03T18:29:29.503Z,100017.35
2018-06-03T18:32:13.591Z,100012.27
2018-06-03T18:34:48.199Z,100009.98
2018-06-03T18:37:24.310Z,100010.52
2018-06-03T18:39:57.879Z,100019.86
2018-06-03T18:42:38.353Z,100020.30
2018-06-03T18:45:13.687Z,100018.09
2018-06-03T18:47:46.934Z,100013.75
2018-06-03T18:50:19.951Z,100012.88
2018-06-03T18:52:52.612Z,100012.17
2018-06-03T18:55:25.934Z,100014.38
2018-06-03T18:57:59.481Z,100011.13
2018-06-03T19:00:37.124Z,100015.54
2018-06-03T19:03:10.385Z,100019.09
2018-06-03T19:05:44.000Z,100012.77
2018-06-03T19:08:17.657Z,100011.41
2018-06-03T19:10:50.600Z,100006.11
2018-06-03T19:13:23.916Z,100009.66
2018-06-03T19:15:56.598Z,100014.52
2018-06-03T19:18:29.854Z,100014.22
2018-06-03T19:21:03.007Z,100012.57
2018-06-03T19:23:38.309Z,100015.91
2018-06-03T19:26:12.383Z,100013.16
2018-06-03T19:28:49.321Z,100016.39
2018-06-03T19:31:21.874Z,100020.76
2018-06-03T19:33:54.549Z,100021.27
2018-06-03T19:36:28.727Z,100020.24
2018-06-03T19:39:01.390Z,100027.18
2018-06-03T19:41:37.136Z,100028.33
2018-06-03T19:44:11.064Z,100028.13
2018-06-03T19:46:46.948Z,100031.47
2018-06-03T19:49:20.464Z,100031.70
2018-06-03T19:51:53.696Z,100029.97
2018-06-03T19:54:27.088Z,100033.28
2018-06-03T19:57:01.158Z,100030.16
2018-06-03T19:59:34.678Z,100035.95
2018-06-03T20:02:08.214Z,100030.89
2018-06-03T20:04:43.836Z,100040.53
2018-06-03T20:07:18.949Z,100044.33
2018-06-03T20:09:53.675Z,100041.12
2018-06-03T20:12:27.017Z,100038.42
2018-06-03T20:14:59.638Z,100035.91
2018-06-03T20:17:34.096Z,100035.02
2018-06-03T20:20:07.958Z,100040.31
2018-06-03T20:22:43.428Z,100040.98
2018-06-03T20:25:17.398Z,100037.58
2018-06-03T20:27:51.082Z,100036.78
2018-06-03T20:30:23.472Z,100034.52
2018-06-03T20:32:56.413Z,100032.44
2018-06-03T20:35:29.582Z,100031.69
2018-06-03T20:38:02.439Z,100030.13
2018-06-03T20:40:36.193Z,100029.78
2018-06-03T20:43:10.106Z,100032.98
2018-06-03T20:45:45.791Z,100038.38
2018-06-03T20:48:18.488Z,100042.64
2018-06-03T20:50:51.908Z,100046.52
2018-06-03T20:53:24.416Z,100042.17
2018-06-03T20:55:56.958Z,100045.07
2018-06-03T20:58:29.756Z,100050.22
2018-06-03T21:01:02.873Z,100050.59
2018-06-03T21:03:36.349Z,100047.52
2018-06-03T21:06:10.053Z,100044.55
2018-06-03T21:08:44.705Z,100044.07
2018-06-03T21:11:17.398Z,100042.35
2018-06-03T21:13:52.289Z,100038.57
2018-06-03T21:16:25.024Z,100045.22
2018-06-03T21:18:57.829Z,100043.36
2018-06-03T21:21:31.189Z,100041.73
2018-06-03T21:24:03.992Z,100042.05
2018-06-03T21:26:36.892Z,100038.90
2018-06-03T21:29:11.652Z,100042.45
2018-06-03T21:31:48.214Z,100047.03
2018-06-03T21:34:23.879Z,100039.26
2018-06-03T21:36:56.927Z,100038.61
2018-06-03T21:39:29.955Z,100038.41
2018-06-03T21:45:52.336Z,100035.29
2018-06-03T21:48:26.619Z,100037.66
2018-06-03T21:50:59.961Z,100037.95
2018-06-03T21:53:32.519Z,100033.58
2018-06-03T21:56:05.221Z,100034.56
2018-06-03T21:58:38.639Z,100035.04
2018-06-03T22:01:12.192Z,100032.97
2018-06-03T22:03:48.247Z,100035.12
2018-06-03T22:06:21.441Z,100038.06
2018-06-03T22:08:55.375Z,100035.11
2018-06-03T22:11:29.101Z,100033.57
2018-06-03T22:14:02.934Z,100029.02
2018-06-03T22:16:36.635Z,100028.68
2018-06-03T22:19:09.000Z,100030.22
2018-06-03T22:21:44.974Z,100023.35
2018-06-03T22:24:23.133Z,100023.89
2018-06-03T22:26:56.822Z,100019.33
2018-06-03T22:29:29.689Z,100019.30
2018-06-03T22:32:02.401Z,100016.11
2018-06-03T22:34:35.009Z,100014.07
2018-06-03T22:37:08.250Z,100011.89
2018-06-03T22:39:45.558Z,100011.62
2018-06-03T22:42:20.267Z,100013.09
2018-06-03T22:44:54.170Z,100010.81
2018-06-03T22:47:27.014Z,100009.41
2018-06-03T22:50:01.050Z,100010.94
2018-06-03T22:52:34.529Z,100014.14
2018-06-03T22:55:08.397Z,100016.75
2018-06-03T22:57:52.085Z,100016.18
2018-06-03T23:00:32.079Z,100013.00
2018-06-03T23:03:10.408Z,100010.75
2018-06-03T23:05:44.814Z,100014.74
2018-06-03T23:08:18.040Z,100005.72
2018-06-03T23:10:51.030Z,100007.02
2018-06-03T23:13:23.611Z,100011.94
2018-06-03T23:15:56.798Z,100006.92
2018-06-03T23:18:29.565Z,100006.14
2018-06-03T23:21:02.178Z,100003.77
2018-06-03T23:23:35.111Z,99999.75
2018-06-03T23:26:07.983Z,100000.21
2018-06-03T23:28:41.691Z,99993.72
2018-06-03T23:31:14.919Z,99997.66
2018-06-03T23:33:48.323Z,99995.38
2018-06-03T23:36:20.809Z,99996.77
2018-06-03T23:38:54.112Z,99996.94
2018-06-03T23:41:26.909Z,99997.77
2018-06-03T23:43:59.524Z,99995.86
2018-06-03T23:46:32.417Z,99999.92
2018-06-03T23:49:05.607Z,99991.74
2018-06-03T23:51:38.298Z,99992.70
2018-06-03T23:54:11.484Z,99984.72
2018-06-03T23:56:44.851Z,99984.62
2018-06-03T23:59:18.921Z,99986.04
